createdAt,value
2019-05-18T00:02:15.783Z,99081.08
2019-05-18T00:04:49.037Z,99082.22
2019-05-18T00:07:22.786Z,99087.81
2019-05-18T00:09:56.468Z,99089.33
2019-05-18T00:12:30.623Z,99090.09
2019-05-18T00:15:03.456Z,99087.56
2019-05-18T00:17:37.144Z,99083.02
2019-05-18T00:20:10.960Z,99082.94
2019-05-18T00:22:43.738Z,99079.23
2019-05-18T00:25:17.769Z,99077.72
2019-05-18T00:27:50.102Z,99080.23
2019-05-18T00:30:23.796Z,99070.97
2019-05-18T00:32:56.919Z,99077.72
2019-05-18T00:35:30.238Z,99079.89
2019-05-18T00:38:03.895Z,99087.22
2019-05-18T00:40:37.867Z,99089.23
2019-05-18T00:43:11.570Z,99090.29
2019-05-18T00:45:45.697Z,99085.70
2019-05-18T00:48:19.348Z,99079.84
2019-05-18T00:50:52.688Z,99082.03
2019-05-18T00:53:25.448Z,99076.98
2019-05-18T00:55:59.170Z,99079.46
2019-05-18T00:58:33.308Z,99077.22
2019-05-18T01:01:06.111Z,99075.91
2019-05-18T01:03:38.981Z,99081.20
2019-05-18T01:06:12.786Z,99074.84
2019-05-18T01:08:45.733Z,99075.12
2019-05-18T01:11:18.993Z,99078.09
2019-05-18T01:13:52.639Z,99083.34
2019-05-18T01:16:25.913Z,99084.20
2019-05-18T01:18:59.186Z,99085.37
2019-05-18T01:21:32.938Z,99082.83
2019-05-18T01:24:05.903Z,99079.00
2019-05-18T01:26:38.160Z,99071.67
2019-05-18T01:29:11.922Z,99072.42
2019-05-18T01:31:45.448Z,99075.78
2019-05-18T01:34:18.797Z,99082.08
2019-05-18T01:36:51.967Z,99089.51
2019-05-18T01:39:24.831Z,99090.21
2019-05-18T01:41:58.049Z,99084.78
2019-05-18T01:44:31.342Z,99087.48
2019-05-18T01:47:05.159Z,99088.36
2019-05-18T01:49:38.765Z,99079.46
2019-05-18T01:52:12.367Z,99078.78
2019-05-18T01:54:45.283Z,99081.98
2019-05-18T01:57:17.990Z,99080.63
2019-05-18T01:59:51.791Z,99086.77
2019-05-18T02:02:25.154Z,99081.05
2019-05-18T02:04:57.894Z,99082.56
2019-05-18T02:07:31.925Z,99086.11
2019-05-18T02:10:05.760Z,99084.97
2019-05-18T02:12:39.444Z,99081.73
2019-05-18T02:15:13.270Z,99076.60
2019-05-18T02:17:46.799Z,99076.88
2019-05-18T02:20:20.514Z,99071.86
2019-05-18T02:22:53.916Z,99071.55
2019-05-18T02:25:27.702Z,99060.61
2019-05-18T02:28:01.457Z,99052.61
2019-05-18T02:30:35.164Z,99050.61
2019-05-18T02:33:10.014Z,99049.27
2019-05-18T02:35:43.621Z,99047.19
2019-05-18T02:38:17.483Z,99053.19
2019-05-18T02:40:51.669Z,99061.16
2019-05-18T02:43:25.315Z,99064.59
2019-05-18T02:45:59.015Z,99061.47
2019-05-18T02:48:47.671Z,99067.66
2019-05-18T02:51:11.462Z,99074.51
2019-05-18T02:53:43.126Z,99079.03
2019-05-18T02:56:16.912Z,99084.45
2019-05-18T02:58:50.655Z,99078.73
2019-05-18T03:01:23.907Z,99073.48
2019-05-18T03:03:57.911Z,99076.26
2019-05-18T03:06:30.681Z,99076.01
2019-05-18T03:09:05.673Z,99070.34
2019-05-18T03:11:39.479Z,99067.20
2019-05-18T03:14:13.344Z,99065.81
2019-05-18T03:16:47.010Z,99060.73
2019-05-18T03:19:20.287Z,99054.52
2019-05-18T03:21:53.918Z,99059.77
2019-05-18T03:24:27.124Z,99058.17
2019-05-18T03:27:00.814Z,99052.91
2019-05-18T03:29:33.618Z,99055.48
2019-05-18T03:32:06.848Z,99055.79
2019-05-18T03:34:40.505Z,99054.33
2019-05-18T03:37:13.924Z,99052.11
2019-05-18T03:39:48.176Z,99052.20
2019-05-18T03:42:21.008Z,99054.61
2019-05-18T03:44:54.670Z,99053.58
2019-05-18T03:47:27.511Z,99058.59
2019-05-18T03:50:01.216Z,99063.95
2019-05-18T03:52:34.915Z,99064.09
2019-05-18T03:55:07.833Z,99063.95
2019-05-18T03:57:40.720Z,99066.13
2019-05-18T04:00:14.814Z,99062.41
2019-05-18T04:02:48.915Z,99059.58
2019-05-18T04:05:22.547Z,99062.43
2019-05-18T04:07:56.867Z,99062.44
2019-05-18T04:10:30.405Z,99063.64
2019-05-18T04:13:04.656Z,99065.86
2019-05-18T04:15:38.794Z,99069.74
2019-05-18T04:18:11.658Z,99072.62
2019-05-18T04:20:45.301Z,99073.64
2019-05-18T04:23:18.584Z,99072.52
2019-05-18T04:25:51.360Z,99068.81
2019-05-18T04:28:24.928Z,99072.24
2019-05-18T04:30:58.728Z,99074.95
2019-05-18T04:33:32.032Z,99072.21
2019-05-18T04:36:04.829Z,99069.19
2019-05-18T04:38:38.243Z,99074.36
2019-05-18T04:41:12.048Z,99073.36
2019-05-18T04:43:45.728Z,99071.42
2019-05-18T04:46:19.550Z,99074.41
2019-05-18T04:48:53.748Z,99069.40
2019-05-18T04:51:30.647Z,99064.39
2019-05-18T04:54:03.911Z,99065.78
2019-05-18T04:56:37.204Z,99068.42
2019-05-18T04:59:10.528Z,99063.71
2019-05-18T05:01:44.636Z,99068.80
2019-05-18T05:04:17.405Z,99066.52
2019-05-18T05:06:50.709Z,99058.73
2019-05-18T05:09:24.577Z,99058.47
2019-05-18T05:11:57.897Z,99055.37
2019-05-18T05:14:30.785Z,99056.26
2019-05-18T05:17:04.516Z,99058.91
2019-05-18T05:19:38.835Z,99055.59
2019-05-18T05:22:12.898Z,99053.18
2019-05-18T05:24:46.524Z,99053.88
2019-05-18T05:27:19.454Z,99051.25
2019-05-18T05:29:53.729Z,99050.14
2019-05-18T05:32:27.661Z,99048.91
2019-05-18T05:35:01.408Z,99039.53
2019-05-18T05:37:36.820Z,99037.78
2019-05-18T05:40:10.417Z,99040.53
2019-05-18T05:42:43.776Z,99035.83
2019-05-18T05:45:17.693Z,99041.67
2019-05-18T05:47:51.026Z,99043.16
2019-05-18T05:50:35.393Z,99042.22
2019-05-18T05:53:01.082Z,99048.08
2019-05-18T05:55:34.833Z,99050.27
2019-05-18T05:58:08.157Z,99057.94
2019-05-18T06:00:41.756Z,99056.56
2019-05-18T06:03:15.387Z,99054.29
2019-05-18T06:05:48.747Z,99052.44
2019-05-18T06:08:22.619Z,99042.62
2019-05-18T06:10:56.242Z,99054.77
2019-05-18T06:13:30.920Z,99057.58
2019-05-18T06:16:04.456Z,99064.91
2019-05-18T06:18:38.589Z,99064.59
2019-05-18T06:21:12.349Z,99066.19
2019-05-18T06:23:45.973Z,99066.95
2019-05-18T06:26:19.209Z,99060.11
2019-05-18T06:28:52.339Z,99060.71
2019-05-18T06:31:25.496Z,99067.48
2019-05-18T06:33:58.410Z,99068.09
2019-05-18T06:36:31.653Z,99060.67
2019-05-18T06:39:05.618Z,99063.14
2019-05-18T06:41:39.295Z,99068.88
2019-05-18T06:44:13.273Z,99066.48
2019-05-18T06:46:46.591Z,99069.34
2019-05-18T06:49:19.683Z,99070.19
2019-05-18T06:51:53.810Z,99075.72
2019-05-18T06:54:27.498Z,99076.23
2019-05-18T06:57:02.948Z,99078.97
2019-05-18T06:59:37.735Z,99075.13
2019-05-18T07:02:10.830Z,99075.05
2019-05-18T07:04:44.787Z,99076.34
2019-05-18T07:07:18.569Z,99072.85
2019-05-18T07:09:52.301Z,99068.05
2019-05-18T07:12:25.255Z,99075.81
2019-05-18T07:15:00.474Z,99074.64
2019-05-18T07:17:34.729Z,99079.83
2019-05-18T07:20:07.690Z,99076.86
2019-05-18T07:22:41.059Z,99079.98
2019-05-18T07:25:15.325Z,99076.38
2019-05-18T07:27:48.646Z,99081.96
2019-05-18T07:30:23.083Z,99070.87
2019-05-18T07:32:56.887Z,99073.65
2019-05-18T07:35:30.762Z,99076.33
2019-05-18T07:38:04.459Z,99071.64
2019-05-18T07:40:37.676Z,99077.42
2019-05-18T07:43:11.529Z,99074.92
2019-05-18T07:45:45.229Z,99073.39
2019-05-18T07:48:19.095Z,99070.47
2019-05-18T07:50:52.266Z,99069.10
2019-05-18T07:53:25.961Z,99061.73
2019-05-18T07:56:00.105Z,99066.69
2019-05-18T07:58:34.380Z,99063.13
2019-05-18T08:01:07.589Z,99057.53
2019-05-18T08:03:40.677Z,99061.56
2019-05-18T08:06:14.494Z,99059.00
2019-05-18T08:08:48.579Z,99062.78
2019-05-18T08:11:22.850Z,99058.30
2019-05-18T08:13:55.833Z,99049.89
2019-05-18T08:16:28.320Z,99053.73
2019-05-18T08:19:01.172Z,99047.36
2019-05-18T08:21:34.328Z,99052.31
2019-05-18T08:24:07.319Z,99043.05
2019-05-18T08:26:40.200Z,99049.70
2019-05-18T08:29:14.041Z,99044.84
2019-05-18T08:31:46.954Z,99045.83
2019-05-18T08:34:20.730Z,99042.08
2019-05-18T08:36:54.043Z,99039.98
2019-05-18T08:39:26.071Z,99043.08
2019-05-18T08:41:59.384Z,99036.97
2019-05-18T08:44:32.214Z,99036.80
2019-05-18T08:47:05.415Z,99043.58
2019-05-18T08:49:38.813Z,99036.50
2019-05-18T08:52:11.309Z,99029.65
2019-05-18T08:54:44.167Z,99030.66
2019-05-18T08:57:16.588Z,99030.59
2019-05-18T08:59:49.395Z,99026.69
2019-05-18T09:02:22.333Z,99021.59
2019-05-18T09:04:54.632Z,99022.80
2019-05-18T09:07:28.139Z,99025.92
2019-05-18T09:10:00.096Z,99021.45
2019-05-18T09:12:33.082Z,99020.08
2019-05-18T09:15:06.268Z,99012.16
2019-05-18T09:17:39.200Z,99012.92
2019-05-18T09:20:12.307Z,99013.71
2019-05-18T09:22:44.815Z,99012.57
2019-05-18T09:25:17.567Z,99004.56
2019-05-18T09:27:50.381Z,99003.28
2019-05-18T09:30:22.437Z,99004.94
2019-05-18T09:32:55.782Z,99003.30
2019-05-18T09:35:29.907Z,98995.34
2019-05-18T09:38:03.211Z,98995.91
2019-05-18T09:40:36.205Z,98997.83
2019-05-18T09:43:09.537Z,98994.67
2019-05-18T09:45:43.943Z,98982.41
2019-05-18T09:48:17.313Z,98985.80
2019-05-18T09:50:51.357Z,98984.76
2019-05-18T09:53:25.711Z,98983.98
2019-05-18T09:55:58.879Z,98977.72
2019-05-18T09:58:32.068Z,98978.28
2019-05-18T10:01:05.369Z,98972.14
2019-05-18T10:03:38.626Z,98968.25
2019-05-18T10:06:11.995Z,98966.88
2019-05-18T10:08:45.501Z,98971.34
2019-05-18T10:11:19.553Z,98962.27
2019-05-18T10:13:52.711Z,98968.97
2019-05-18T10:16:26.296Z,98959.49
2019-05-18T10:19:00.390Z,98959.87
2019-05-18T10:21:34.513Z,98950.27
2019-05-18T10:24:07.364Z,98950.03
2019-05-18T10:26:41.204Z,98947.23
2019-05-18T10:29:15.498Z,98945.72
2019-05-18T10:31:49.499Z,98940.27
2019-05-18T10:34:23.168Z,98945.64
2019-05-18T10:36:56.816Z,98942.94
2019-05-18T10:39:29.857Z,98935.01
2019-05-18T10:42:02.742Z,98937.16
2019-05-18T10:44:35.853Z,98930.50
2019-05-18T10:47:08.667Z,98932.66
2019-05-18T10:49:42.430Z,98923.41
2019-05-18T10:52:16.073Z,98924.34
2019-05-18T10:54:49.281Z,98921.05
2019-05-18T10:57:23.179Z,98918.13
2019-05-18T10:59:56.881Z,98920.40
2019-05-18T11:02:30.317Z,98920.66
2019-05-18T11:05:03.981Z,98915.86
2019-05-18T11:07:37.205Z,98920.20
2019-05-18T11:10:11.247Z,98914.86
2019-05-18T11:12:44.167Z,98916.60
2019-05-18T11:15:18.673Z,98908.83
2019-05-18T11:17:52.307Z,98907.34
2019-05-18T11:20:26.294Z,98908.64
2019-05-18T11:22:59.934Z,98905.80
2019-05-18T11:25:34.021Z,98907.70
2019-05-18T11:28:07.696Z,98909.07
2019-05-18T11:30:40.456Z,98913.95
2019-05-18T11:33:14.205Z,98910.72
2019-05-18T11:35:47.237Z,98905.45
2019-05-18T11:38:21.034Z,98899.68
2019-05-18T11:40:54.774Z,98905.22
2019-05-18T11:43:29.020Z,98906.98
2019-05-18T11:46:02.965Z,98898.98
2019-05-18T11:48:36.722Z,98898.22
2019-05-18T11:51:11.016Z,98896.39
2019-05-18T11:53:57.208Z,98890.72
2019-05-18T11:56:19.801Z,98890.61
2019-05-18T11:58:53.892Z,98894.70
2019-05-18T12:01:27.235Z,98881.30
2019-05-18T12:04:00.901Z,98880.34
2019-05-18T12:06:35.136Z,98876.56
2019-05-18T12:09:08.662Z,98875.09
2019-05-18T12:11:42.461Z,98873.51
2019-05-18T12:14:21.346Z,98871.19
2019-05-18T12:16:54.651Z,98861.52
2019-05-18T12:19:28.384Z,98863.55
2019-05-18T12:22:01.981Z,98858.05
2019-05-18T12:24:51.874Z,98862.47
2019-05-18T12:27:28.735Z,98854.30
2019-05-18T12:30:02.018Z,98851.41
2019-05-18T12:32:35.782Z,98844.66
2019-05-18T12:35:08.659Z,98842.92
2019-05-18T12:37:42.500Z,98834.09
2019-05-18T12:40:18.705Z,98832.73
2019-05-18T12:42:52.036Z,98821.58
2019-05-18T12:45:26.319Z,98818.95
2019-05-18T12:47:59.496Z,98815.30
2019-05-18T12:50:32.356Z,98814.59
2019-05-18T12:53:06.478Z,98812.57
2019-05-18T12:55:40.186Z,98810.00
2019-05-18T12:58:13.982Z,98808.74
2019-05-18T13:00:45.999Z,98804.59
2019-05-18T13:03:18.750Z,98808.52
2019-05-18T13:05:51.255Z,98806.38
2019-05-18T13:08:24.121Z,98805.33
2019-05-18T13:10:56.591Z,98806.37
2019-05-18T13:13:29.558Z,98807.28
2019-05-18T13:16:02.142Z,98800.72
2019-05-18T13:18:34.944Z,98795.83
2019-05-18T13:21:07.442Z,98790.17
2019-05-18T13:23:39.893Z,98790.38
2019-05-18T13:26:11.900Z,98790.06
2019-05-18T13:28:45.666Z,98783.13
2019-05-18T13:31:18.373Z,98789.75
2019-05-18T13:33:51.237Z,98784.09
2019-05-18T13:36:23.955Z,98782.13
2019-05-18T13:38:57.302Z,98775.55
2019-05-18T13:41:29.753Z,98775.88
2019-05-18T13:44:02.704Z,98773.96
2019-05-18T13:46:35.607Z,98776.83
2019-05-18T13:49:08.439Z,98775.99
2019-05-18T13:51:41.583Z,98771.79
2019-05-18T13:54:14.531Z,98772.70
2019-05-18T13:56:48.019Z,98775.78
2019-05-18T13:59:20.005Z,98774.94
2019-05-18T14:01:55.043Z,98769.97
2019-05-18T14:04:27.897Z,98764.35
2019-05-18T14:07:00.412Z,98768.66
2019-05-18T14:09:33.538Z,98765.30
2019-05-18T14:12:06.477Z,98761.94
2019-05-18T14:14:40.743Z,98754.42
2019-05-18T14:17:13.813Z,98756.48
2019-05-18T14:19:47.140Z,98748.20
2019-05-18T14:22:20.224Z,98752.14
2019-05-18T14:24:54.176Z,98752.22
2019-05-18T14:27:26.577Z,98748.90
2019-05-18T14:29:59.376Z,98757.17
2019-05-18T14:32:32.170Z,98754.12
2019-05-18T14:35:05.025Z,98752.03
2019-05-18T14:37:38.045Z,98743.74
2019-05-18T14:40:11.202Z,98748.55
2019-05-18T14:42:43.635Z,98736.91
2019-05-18T14:45:17.085Z,98735.40
2019-05-18T14:47:49.082Z,98742.03
2019-05-18T14:50:22.291Z,98739.45
2019-05-18T14:52:55.239Z,98732.92
2019-05-18T14:55:33.877Z,98730.15
2019-05-18T14:58:02.743Z,98728.70
2019-05-18T15:00:35.870Z,98730.19
2019-05-18T15:03:08.359Z,98720.80
2019-05-18T15:05:41.720Z,98724.23
2019-05-18T15:08:15.604Z,98726.81
2019-05-18T15:10:48.397Z,98724.68
2019-05-18T15:13:20.821Z,98725.62
2019-05-18T15:15:53.862Z,98720.53
2019-05-18T15:18:26.270Z,98717.97
2019-05-18T15:20:59.511Z,98721.70
2019-05-18T15:23:32.830Z,98719.17
2019-05-18T15:26:06.699Z,98719.25
2019-05-18T15:28:39.933Z,98715.00
2019-05-18T15:31:11.921Z,98715.91
2019-05-18T15:33:45.074Z,98714.51
2019-05-18T15:36:18.223Z,98716.98
2019-05-18T15:38:51.107Z,98717.73
2019-05-18T15:41:25.372Z,98717.47
2019-05-18T15:43:59.138Z,98719.42
2019-05-18T15:46:32.767Z,98717.30
2019-05-18T15:49:05.678Z,98718.48
2019-05-18T15:51:38.973Z,98715.41
2019-05-18T15:54:13.057Z,98716.21
2019-05-18T15:56:46.800Z,98720.91
2019-05-18T15:59:20.098Z,98715.18
2019-05-18T16:01:53.438Z,98715.47
2019-05-18T16:04:26.804Z,98717.54
2019-05-18T16:07:00.529Z,98720.91
2019-05-18T16:09:34.436Z,98725.38
2019-05-18T16:12:08.197Z,98723.16
2019-05-18T16:14:41.507Z,98727.43
2019-05-18T16:17:14.770Z,98731.59
2019-05-18T16:19:47.592Z,98726.54
2019-05-18T16:22:21.370Z,98730.09
2019-05-18T16:24:55.662Z,98734.33
2019-05-18T16:27:29.567Z,98735.09
2019-05-18T16:30:02.887Z,98736.09
2019-05-18T16:32:36.996Z,98739.95
2019-05-18T16:35:11.551Z,98737.99
2019-05-18T16:37:44.796Z,98737.88
2019-05-18T16:40:18.485Z,98734.89
2019-05-18T16:42:52.366Z,98733.23
2019-05-18T16:45:25.778Z,98730.58
2019-05-18T16:47:59.495Z,98735.40
2019-05-18T16:50:33.561Z,98725.52
2019-05-18T16:53:06.866Z,98724.29
2019-05-18T16:55:40.667Z,98719.83
2019-05-18T16:58:14.408Z,98720.23
2019-05-18T17:00:49.463Z,98717.38
2019-05-18T17:03:23.193Z,98719.28
2019-05-18T17:05:55.950Z,98717.74
2019-05-18T17:08:29.319Z,98718.88
2019-05-18T17:11:02.620Z,98722.19
2019-05-18T17:13:35.427Z,98719.67
2019-05-18T17:16:08.849Z,98719.77
2019-05-18T17:18:41.767Z,98719.59
2019-05-18T17:21:15.981Z,98721.61
2019-05-18T17:23:49.547Z,98724.48
2019-05-18T17:26:23.772Z,98730.95
2019-05-18T17:28:57.015Z,98728.26
2019-05-18T17:31:31.150Z,98729.91
2019-05-18T17:34:05.498Z,98735.83
2019-05-18T17:36:39.188Z,98741.09
2019-05-18T17:39:11.869Z,98745.62
2019-05-18T17:41:45.776Z,98748.44
2019-05-18T17:44:19.877Z,98752.19
2019-05-18T17:46:53.540Z,98753.02
2019-05-18T17:49:27.594Z,98760.45
2019-05-18T17:52:00.862Z,98764.13
2019-05-18T17:54:34.795Z,98772.43
2019-05-18T17:57:09.334Z,98776.30
2019-05-18T17:59:43.908Z,98778.31
2019-05-18T18:02:17.106Z,98775.15
2019-05-18T18:04:54.081Z,98782.81
2019-05-18T18:07:25.516Z,98784.44
2019-05-18T18:09:58.846Z,98784.78
2019-05-18T18:12:32.486Z,98785.66
2019-05-18T18:15:06.524Z,98787.75
2019-05-18T18:17:39.844Z,98785.72
2019-05-18T18:20:14.835Z,98781.81
2019-05-18T18:22:48.555Z,98788.02
2019-05-18T18:25:22.364Z,98788.40
2019-05-18T18:27:55.633Z,98792.48
2019-05-18T18:30:28.121Z,98791.14
2019-05-18T18:33:02.331Z,98794.48
2019-05-18T18:35:43.710Z,98789.48
2019-05-18T18:38:17.930Z,98789.17
2019-05-18T18:40:51.736Z,98787.03
2019-05-18T18:43:28.230Z,98788.91
2019-05-18T18:46:01.458Z,98793.95
2019-05-18T18:48:34.821Z,98793.11
2019-05-18T18:51:09.008Z,98799.11
2019-05-18T18:53:42.710Z,98798.69
2019-05-18T18:56:16.465Z,98808.83
2019-05-18T18:58:50.095Z,98814.09
2019-05-18T19:01:23.403Z,98813.00
2019-05-18T19:03:57.072Z,98808.69
2019-05-18T19:06:30.026Z,98809.50
2019-05-18T19:09:03.481Z,98809.98
2019-05-18T19:11:36.793Z,98806.58
2019-05-18T19:14:10.638Z,98805.64
2019-05-18T19:16:43.403Z,98804.59
2019-05-18T19:19:16.653Z,98798.63
2019-05-18T19:21:50.501Z,98800.78
2019-05-18T19:24:23.759Z,98798.00
2019-05-18T19:26:57.502Z,98800.12
2019-05-18T19:29:30.267Z,98801.34
2019-05-18T19:32:03.635Z,98801.98
2019-05-18T19:34:37.346Z,98803.72
2019-05-18T19:37:10.977Z,98800.59
2019-05-18T19:39:44.802Z,98794.11
2019-05-18T19:42:18.536Z,98790.75
2019-05-18T19:44:51.849Z,98798.56
2019-05-18T19:47:25.674Z,98803.58
2019-05-18T19:49:59.514Z,98806.14
2019-05-18T19:52:33.252Z,98800.25
2019-05-18T19:55:07.059Z,98801.47
2019-05-18T19:57:40.366Z,98803.95
2019-05-18T20:00:15.660Z,98805.35
2019-05-18T20:02:49.347Z,98798.83
2019-05-18T20:05:25.514Z,98796.36
2019-05-18T20:07:58.366Z,98789.98
2019-05-18T20:10:30.877Z,98788.69
2019-05-18T20:13:03.784Z,98793.31
2019-05-18T20:15:36.203Z,98794.59
2019-05-18T20:18:08.743Z,98790.42
2019-05-18T20:20:42.369Z,98787.33
2019-05-18T20:23:14.440Z,98780.84
2019-05-18T20:25:46.405Z,98778.30
2019-05-18T20:28:23.668Z,98778.66
2019-05-18T20:30:54.329Z,98785.86
2019-05-18T20:33:27.656Z,98796.20
2019-05-18T20:36:00.402Z,98795.66
2019-05-18T20:38:33.789Z,98804.65
2019-05-18T20:41:06.700Z,98806.46
2019-05-18T20:43:40.341Z,98805.56
2019-05-18T20:46:13.576Z,98805.09
2019-05-18T20:48:46.995Z,98806.06
2019-05-18T20:51:20.328Z,98808.69
2019-05-18T20:53:52.379Z,98801.19
2019-05-18T20:56:24.916Z,98810.95
2019-05-18T20:58:58.373Z,98819.93
2019-05-18T21:01:32.450Z,98819.08
2019-05-18T21:04:06.155Z,98820.17
2019-05-18T21:06:39.119Z,98821.36
2019-05-18T21:09:11.937Z,98820.92
2019-05-18T21:11:45.653Z,98828.66
2019-05-18T21:14:19.551Z,98832.95
2019-05-18T21:16:52.308Z,98834.63
2019-05-18T21:19:24.781Z,98835.03
2019-05-18T21:21:58.629Z,98837.20
2019-05-18T21:24:32.823Z,98840.78
2019-05-18T21:27:06.403Z,98837.86
2019-05-18T21:29:40.233Z,98844.45
2019-05-18T21:32:14.241Z,98846.89
2019-05-18T21:34:48.071Z,98846.28
2019-05-18T21:37:21.254Z,98846.79
2019-05-18T21:39:54.664Z,98842.09
2019-05-18T21:42:28.155Z,98841.27
2019-05-18T21:45:02.060Z,98842.50
2019-05-18T21:47:36.152Z,98838.32
2019-05-18T21:50:09.385Z,98828.98
2019-05-18T21:52:42.656Z,98825.51
2019-05-18T21:55:17.188Z,98824.49
2019-05-18T21:57:49.920Z,98817.89
2019-05-18T22:00:24.821Z,98809.27
2019-05-18T22:02:58.033Z,98806.96
2019-05-18T22:05:31.776Z,98795.38
2019-05-18T22:08:05.109Z,98787.73
2019-05-18T22:10:37.948Z,98785.31
2019-05-18T22:13:11.670Z,98783.00
2019-05-18T22:15:45.460Z,98783.27
2019-05-18T22:18:24.687Z,98784.80
2019-05-18T22:20:53.671Z,98775.56
2019-05-18T22:23:26.976Z,98772.78
2019-05-18T22:26:00.292Z,98764.59
2019-05-18T22:28:33.488Z,98764.15
2019-05-18T22:31:06.744Z,98767.16
2019-05-18T22:33:40.016Z,98751.27
2019-05-18T22:36:13.824Z,98743.02
2019-05-18T22:38:47.074Z,98744.84
2019-05-18T22:41:20.339Z,98742.19
2019-05-18T22:43:53.161Z,98756.49
2019-05-18T22:46:26.815Z,98758.88
2019-05-18T22:49:00.579Z,98758.47
2019-05-18T22:51:34.861Z,98754.17
2019-05-18T22:54:08.469Z,98750.44
2019-05-18T22:56:41.752Z,98751.80
2019-05-18T22:59:14.628Z,98743.48
2019-05-18T23:01:47.838Z,98734.32
2019-05-18T23:04:21.552Z,98741.34
2019-05-18T23:06:54.926Z,98733.20
2019-05-18T23:09:29.077Z,98720.14
2019-05-18T23:12:03.269Z,98719.72
2019-05-18T23:14:37.014Z,98729.79
2019-05-18T23:17:10.188Z,98727.24
2019-05-18T23:19:43.145Z,98729.04
2019-05-18T23:22:16.782Z,98738.61
2019-05-18T23:24:50.993Z,98734.53
2019-05-18T23:27:24.247Z,98740.97
2019-05-18T23:29:57.102Z,98738.05
2019-05-18T23:32:30.877Z,98743.63
2019-05-18T23:35:04.227Z,98740.52
2019-05-18T23:37:37.426Z,98737.95
2019-05-18T23:40:11.313Z,98736.83
2019-05-18T23:42:44.958Z,98735.13
2019-05-18T23:45:18.781Z,98741.32
2019-05-18T23:47:51.617Z,98750.17
2019-05-18T23:50:25.355Z,98751.72
2019-05-18T23:52:58.951Z,98761.47
2019-05-18T23:55:33.146Z,98765.02
2019-05-18T23:58:06.956Z,98765.34
